Nearby METAR Reports

 

KBVO - Bartlesville, Oklahoma, USA
Distance from station: WNW 10mi, 16km
Updated: Mon, 18-Nov-2019 8:53pm CST
Clear
Clear
 Wind from calm
Wind: Calm
Temperature: 46°F , 8°C
Dew Point: 37°F , 3°C
Humidity: 71%
Barometer: 29.83 inHg , 1010.2 hPa
Clouds: Clear
Visibility: 10 miles , 16 km
2019/11/19 02:53 KBVO 190253Z AUTO 00000KT 10SM CLR 08/03 A2983 RMK AO2 SLP099 T00780033 51017
KCFV - Coffeyville, Kansas, USA
Distance from station: NNE 31mi, 49km
Updated: Mon, 18-Nov-2019 9:52pm CST
Clear
Clear
 Wind from WNW
Wind: WNW 7 mph , 11 km/h
Temperature: 55°F , 13°C
Dew Point: 39°F , 4°C
Humidity: 55%
Barometer: 29.81 inHg , 1009.5 hPa
Clouds: Clear
Visibility: 10 miles , 16 km
2019/11/19 03:52 KCFV 190352Z AUTO 30006KT 10SM CLR 13/04 A2981 RMK AO2 SLP095 T01280044
 
KIDP - Independence, Kansas, USA
Distance from station: N 32mi, 52km
Updated: Mon, 18-Nov-2019 9:35pm CST
Clear
Clear
 Wind from W
Wind: W 8 mph , 13 km/h
Temperature: 52°F , 11°C
Dew Point: 39°F , 4°C
Humidity: 62%
Barometer: 29.82 inHg , 1009.8 hPa
Clouds: Clear
Visibility: 10 miles , 16 km
2019/11/19 03:35 KIDP 190335Z AUTO 28007KT 10SM CLR 11/04 A2982 RMK AO2 T01050045
KGCM - Claremore, Oklahoma, USA
Distance from station: SE 35mi, 56km
Updated: Mon, 18-Nov-2019 9:55pm CST
Partly cloudy
Partly cloudy
 Wind from W
Wind: W 6 mph , 9 km/h
Temperature: 50°F , 10°C
Wind Chill: 48°F , 9°C
Dew Point: 37°F , 3°C
Humidity: 62%
Barometer: 29.86 inHg , 1011.2 hPa
Clouds: Partly cloudy
Visibility: 10 miles , 16 km
Cloud details: Partly cloudy 8000 ft
2019/11/19 03:55 KGCM 190355Z AUTO 26005KT 10SM SCT080 10/03 A2986 RMK AO2
 
KTUL - Tulsa, Oklahoma, USA
Distance from station: S 35mi, 56km
Updated: Mon, 18-Nov-2019 9:53pm CST
Few Clouds
Few Clouds
 Wind from W
Wind: W 7 mph , 11 km/h
Temperature: 54°F , 12°C
Dew Point: 39°F , 4°C
Humidity: 58%
Barometer: 29.84 inHg , 1010.5 hPa
Clouds: Few Clouds
Visibility: 8 miles , 13 km
Cloud details: Few Clouds 8500 ft
Few Clouds 25000 ft
2019/11/19 03:53 KTUL 190353Z 26006KT 8SM FEW085 FEW250 12/04 A2984 RMK AO2 SLP101 T01220039
KRVS - Tulsa, Oklahoma, USA
Distance from station: S 46mi, 74km
Updated: Mon, 18-Nov-2019 9:53pm CST
Clear
Clear
 Wind from calm
Wind: Calm
Temperature: 46°F , 8°C
Dew Point: 39°F , 4°C
Humidity: 76%
Barometer: 29.85 inHg , 1010.8 hPa
Clouds: Clear
Visibility: 10 miles , 16 km
2019/11/19 03:53 KRVS 190353Z 00000KT 10SM CLR 08/04 A2985 RMK AO2 SLP111 LAST T00780039
 
KPPF - Parsons, Kansas, USA
Distance from station: NNE 48mi, 76km
Updated: Mon, 18-Nov-2019 9:52pm CST
Clear
Clear
 Wind from WNW
Wind: WNW 6 mph , 9 km/h
Temperature: 50°F , 10°C
Wind Chill: 48°F , 9°C
Dew Point: 41°F , 5°C
Humidity: 71%
Barometer: 29.82 inHg , 1009.8 hPa
Clouds: Clear
Visibility: 10 miles , 16 km
2019/11/19 03:52 KPPF 190352Z AUTO 30005KT 10SM CLR 10/05 A2982 RMK AO2 SLP097 T01000050
KGMJ - Grove, Oklahoma, USA
Distance from station: E 63mi, 101km
Updated: Mon, 18-Nov-2019 9:55pm CST
Clear
Clear
 Wind from SW
Wind: SW 3 mph , 6 km/h
Temperature: 46°F , 8°C
Dew Point: 37°F , 3°C
Humidity: 71%
Barometer: 29.82 inHg , 1009.8 hPa
Clouds: Clear
Visibility: 10 miles , 16 km
2019/11/19 03:55 KGMJ 190355Z AUTO 23003KT 10SM CLR 08/03 A2982 RMK AO2
 
KPNC - Ponca City, Oklahoma, USA
Distance from station: W 69mi, 111km
Updated: Mon, 18-Nov-2019 9:53pm CST
Clear
Clear
 Wind from calm
Wind: Calm
Temperature: 52°F , 11°C
Dew Point: 37°F , 3°C
Humidity: 58%
Barometer: 29.87 inHg , 1011.5 hPa
Clouds: Clear
Visibility: 10 miles , 16 km
2019/11/19 03:53 KPNC 190353Z AUTO 00000KT 10SM CLR 11/03 A2987 RMK AO2 SLP110 T01060033
KCNU - Chanute, Kansas, USA
Distance from station: NNE 69mi, 112km
Updated: Mon, 18-Nov-2019 9:52pm CST
Clear
Clear
 Wind from WNW
Wind: WNW 8 mph , 13 km/h
Temperature: 54°F , 12°C
Dew Point: 39°F , 4°C
Humidity: 58%
Barometer: 29.81 inHg , 1009.5 hPa
Clouds: Clear
Visibility: 10 miles , 16 km
2019/11/19 03:52 KCNU 190352Z AUTO 29007KT 10SM CLR 12/04 A2981 RMK AO2 SLP092 T01170044